createdAt,value
2018-10-03T00:00:16.912Z,10.61
2018-10-03T00:01:16.956Z,10.56
2018-10-03T00:02:16.220Z,10.52
2018-10-03T00:03:16.479Z,10.56
2018-10-03T00:04:16.747Z,10.58
2018-10-03T00:05:17.015Z,10.67
2018-10-03T00:06:16.278Z,10.60
2018-10-03T00:07:16.544Z,10.58
2018-10-03T00:08:16.819Z,10.63
2018-10-03T00:09:17.103Z,10.65
2018-10-03T00:10:16.381Z,10.64
2018-10-03T00:11:16.429Z,10.64
2018-10-03T00:12:16.696Z,10.63
2018-10-03T00:13:16.968Z,10.64
2018-10-03T00:14:16.242Z,10.64
2018-10-03T00:15:16.504Z,10.63
2018-10-03T00:16:16.770Z,10.64
2018-10-03T00:17:17.043Z,10.63
2018-10-03T00:18:16.321Z,10.67
2018-10-03T00:19:16.586Z,10.67
2018-10-03T00:20:16.938Z,10.67
2018-10-03T00:21:16.913Z,10.65
2018-10-03T00:22:17.185Z,10.67
2018-10-03T00:23:16.478Z,10.64
2018-10-03T00:24:16.830Z,10.64
2018-10-03T00:25:17.099Z,10.71
2018-10-03T00:26:16.369Z,10.71
2018-10-03T00:27:16.635Z,10.67
2018-10-03T00:28:16.903Z,10.65
2018-10-03T00:29:17.185Z,10.65
2018-10-03T00:30:16.460Z,10.67
2018-10-03T00:31:16.523Z,10.65
2018-10-03T00:32:16.795Z,10.68
2018-10-03T00:33:17.068Z,10.67
2018-10-03T00:34:16.340Z,10.63
2018-10-03T00:35:16.621Z,10.61
2018-10-03T00:36:16.887Z,10.61
2018-10-03T00:37:17.156Z,10.60
2018-10-03T00:38:16.432Z,10.61
2018-10-03T00:39:16.697Z,10.63
2018-10-03T00:40:16.982Z,10.67
2018-10-03T00:41:17.171Z,10.64
2018-10-03T00:42:16.444Z,10.64
2018-10-03T00:43:16.710Z,10.65
2018-10-03T00:44:16.974Z,10.65
2018-10-03T00:45:16.249Z,10.63
2018-10-03T00:46:16.515Z,10.65
2018-10-03T00:47:16.788Z,10.64
2018-10-03T00:48:17.056Z,10.60
2018-10-03T00:49:16.325Z,10.64
2018-10-03T00:50:16.608Z,10.65
2018-10-03T00:51:16.636Z,10.65
2018-10-03T00:52:16.900Z,10.67
2018-10-03T00:53:17.167Z,10.68
2018-10-03T00:54:16.430Z,10.68
2018-10-03T00:55:16.702Z,10.63
2018-10-03T00:56:16.972Z,10.68
2018-10-03T00:57:16.241Z,10.68
2018-10-03T00:58:16.513Z,10.70
2018-10-03T00:59:16.783Z,10.67
2018-10-03T01:00:17.089Z,10.65
2018-10-03T01:01:17.110Z,10.61
2018-10-03T01:02:16.383Z,10.58
2018-10-03T01:03:16.648Z,10.60
2018-10-03T01:04:16.914Z,10.58
2018-10-03T01:05:17.184Z,10.58
2018-10-03T01:06:16.453Z,10.58
2018-10-03T01:07:16.738Z,10.57
2018-10-03T01:08:17.008Z,10.60
2018-10-03T01:09:16.285Z,10.57
2018-10-03T01:10:16.571Z,10.60
2018-10-03T01:11:16.609Z,10.61
2018-10-03T01:12:16.884Z,10.61
2018-10-03T01:13:17.157Z,10.58
2018-10-03T01:14:16.439Z,10.63
2018-10-03T01:15:16.708Z,10.58
2018-10-03T01:16:16.976Z,10.60
2018-10-03T01:17:16.243Z,10.60
2018-10-03T01:18:16.513Z,10.63
2018-10-03T01:19:16.776Z,10.61
2018-10-03T01:20:17.053Z,10.61
2018-10-03T01:21:17.095Z,10.63
2018-10-03T01:22:16.368Z,10.58
2018-10-03T01:23:16.639Z,10.60
2018-10-03T01:24:16.908Z,10.60
2018-10-03T01:25:17.194Z,10.57
2018-10-03T01:26:16.466Z,10.58
2018-10-03T01:27:16.735Z,10.65
2018-10-03T01:28:17.009Z,10.63
2018-10-03T01:29:16.284Z,10.64
2018-10-03T01:30:16.559Z,10.67
2018-10-03T01:31:16.614Z,10.67
2018-10-03T01:32:16.883Z,10.65
2018-10-03T01:33:17.161Z,10.64
2018-10-03T01:34:16.436Z,10.65
2018-10-03T01:35:16.709Z,10.65
2018-10-03T01:36:16.981Z,10.65
2018-10-03T01:37:16.254Z,10.70
2018-10-03T01:38:16.575Z,10.72
2018-10-03T01:39:16.979Z,10.67
2018-10-03T01:40:16.313Z,10.70
2018-10-03T01:41:16.357Z,10.67
2018-10-03T01:42:16.627Z,10.67
2018-10-03T01:43:16.898Z,10.63
2018-10-03T01:44:17.165Z,10.64
2018-10-03T01:45:16.453Z,10.65
2018-10-03T01:46:16.716Z,10.65
2018-10-03T01:47:17.000Z,10.68
2018-10-03T01:48:16.266Z,10.71
2018-10-03T01:49:16.554Z,10.75
2018-10-03T01:50:16.838Z,10.74
2018-10-03T01:51:16.888Z,10.71
2018-10-03T01:52:17.155Z,10.74
2018-10-03T01:53:16.419Z,10.74
2018-10-03T01:54:16.690Z,10.71
2018-10-03T01:55:16.977Z,10.70
2018-10-03T01:56:16.256Z,10.72
2018-10-03T01:57:16.538Z,10.79
2018-10-03T01:58:16.806Z,10.78
2018-10-03T01:59:17.077Z,10.78
2018-10-03T02:00:16.377Z,10.78
2018-10-03T02:01:16.392Z,10.78
2018-10-03T02:02:16.661Z,10.75
2018-10-03T02:03:16.924Z,10.77
2018-10-03T02:04:17.197Z,10.79
2018-10-03T02:05:16.473Z,10.75
2018-10-03T02:06:16.743Z,10.77
2018-10-03T02:07:17.011Z,10.79
2018-10-03T02:08:16.294Z,10.72
2018-10-03T02:09:16.581Z,10.75
2018-10-03T02:10:16.414Z,10.74
2018-10-03T02:11:16.455Z,10.78
2018-10-03T02:12:16.731Z,10.77
2018-10-03T02:13:17.004Z,10.75
2018-10-03T02:14:16.280Z,10.74
2018-10-03T02:15:16.557Z,10.82
2018-10-03T02:16:16.842Z,10.79
2018-10-03T02:17:17.113Z,10.74
2018-10-03T02:18:16.393Z,10.77
2018-10-03T02:19:16.658Z,10.78
2018-10-03T02:20:16.930Z,10.77
2018-10-03T02:21:16.970Z,10.78
2018-10-03T02:22:16.242Z,10.77
2018-10-03T02:23:16.515Z,10.79
2018-10-03T02:24:16.781Z,10.77
2018-10-03T02:25:17.434Z,10.79
2018-10-03T02:26:16.704Z,10.77
2018-10-03T02:27:16.982Z,10.81
2018-10-03T02:28:16.252Z,10.79
2018-10-03T02:29:16.523Z,10.79
2018-10-03T02:30:16.808Z,10.78
2018-10-03T02:31:17.175Z,10.78
2018-10-03T02:32:16.451Z,10.82
2018-10-03T02:33:16.736Z,10.81
2018-10-03T02:34:17.010Z,10.79
2018-10-03T02:35:16.286Z,10.81
2018-10-03T02:36:16.553Z,10.79
2018-10-03T02:37:17.094Z,10.77
2018-10-03T02:38:16.370Z,10.77
2018-10-03T02:39:16.643Z,10.78
2018-10-03T02:40:16.936Z,10.81
2018-10-03T02:41:16.981Z,10.79
2018-10-03T02:42:16.260Z,10.79
2018-10-03T02:43:16.533Z,10.84
2018-10-03T02:44:16.809Z,10.84
2018-10-03T02:45:17.094Z,10.74
2018-10-03T02:46:16.378Z,10.75
2018-10-03T02:47:16.658Z,10.77
2018-10-03T02:48:16.929Z,10.78
2018-10-03T02:49:17.205Z,10.81
2018-10-03T02:50:16.511Z,10.78
2018-10-03T02:51:16.551Z,10.77
2018-10-03T02:52:16.824Z,10.78
2018-10-03T02:53:17.129Z,10.79
2018-10-03T02:54:16.406Z,10.75
2018-10-03T02:55:16.675Z,10.78
2018-10-03T02:56:16.956Z,10.82
2018-10-03T02:57:16.221Z,10.84
2018-10-03T02:58:16.499Z,10.82
2018-10-03T02:59:16.775Z,10.81
2018-10-03T03:00:17.069Z,10.89
2018-10-03T03:01:17.125Z,10.85
2018-10-03T03:02:16.401Z,10.88
2018-10-03T03:03:16.676Z,10.91
2018-10-03T03:04:16.953Z,10.88
2018-10-03T03:05:16.242Z,10.88
2018-10-03T03:06:16.520Z,10.89
2018-10-03T03:07:16.799Z,10.87
2018-10-03T03:08:17.079Z,10.89
2018-10-03T03:09:16.357Z,10.89
2018-10-03T03:10:16.645Z,10.89
2018-10-03T03:11:16.686Z,10.88
2018-10-03T03:12:16.975Z,10.89
2018-10-03T03:13:16.392Z,10.91
2018-10-03T03:14:16.666Z,10.89
2018-10-03T03:15:16.957Z,10.91
2018-10-03T03:16:16.228Z,10.88
2018-10-03T03:17:16.488Z,10.92
2018-10-03T03:18:16.757Z,10.94
2018-10-03T03:19:17.027Z,10.94
2018-10-03T03:20:16.299Z,10.94
2018-10-03T03:21:16.346Z,10.92
2018-10-03T03:22:16.617Z,10.89
2018-10-03T03:23:16.898Z,10.89
2018-10-03T03:24:17.171Z,10.91
2018-10-03T03:25:16.450Z,10.94
2018-10-03T03:26:16.734Z,10.95
2018-10-03T03:27:17.017Z,10.98
2018-10-03T03:28:16.288Z,10.99
2018-10-03T03:29:16.572Z,10.99
2018-10-03T03:30:16.863Z,11.00
2018-10-03T03:31:16.907Z,10.99
2018-10-03T03:32:17.190Z,11.02
2018-10-03T03:33:16.485Z,10.98
2018-10-03T03:34:16.756Z,10.99
2018-10-03T03:35:17.159Z,10.99
2018-10-03T03:36:16.431Z,10.99
2018-10-03T03:37:16.718Z,10.96
2018-10-03T03:38:16.992Z,10.96
2018-10-03T03:39:16.273Z,10.98
2018-10-03T03:40:16.546Z,11.02
2018-10-03T03:41:16.621Z,10.99
2018-10-03T03:42:16.889Z,10.99
2018-10-03T03:43:17.163Z,11.05
2018-10-03T03:44:16.461Z,11.02
2018-10-03T03:45:16.736Z,10.99
2018-10-03T03:46:17.002Z,11.05
2018-10-03T03:47:16.272Z,11.06
2018-10-03T03:48:16.559Z,11.03
2018-10-03T03:49:16.838Z,11.05
2018-10-03T03:50:17.128Z,11.05
2018-10-03T03:51:17.540Z,11.05
2018-10-03T03:52:16.838Z,11.05
2018-10-03T03:53:17.117Z,11.09
2018-10-03T03:54:16.381Z,11.09
2018-10-03T03:55:16.664Z,11.09
2018-10-03T03:56:16.946Z,11.06
2018-10-03T03:57:16.225Z,11.09
2018-10-03T03:58:16.512Z,11.07
2018-10-03T03:59:16.777Z,11.10
2018-10-03T04:00:17.386Z,11.07
2018-10-03T04:01:17.113Z,11.09
2018-10-03T04:02:16.391Z,11.15
2018-10-03T04:03:16.671Z,11.13
2018-10-03T04:04:16.956Z,11.12
2018-10-03T04:05:16.235Z,11.15
2018-10-03T04:06:16.508Z,11.16
2018-10-03T04:07:16.779Z,11.16
2018-10-03T04:08:17.050Z,11.16
2018-10-03T04:09:16.314Z,11.19
2018-10-03T04:10:16.597Z,11.17
2018-10-03T04:11:16.627Z,11.22
2018-10-03T04:12:16.903Z,11.17
2018-10-03T04:13:17.186Z,11.20
2018-10-03T04:14:16.466Z,11.22
2018-10-03T04:15:16.737Z,11.19
2018-10-03T04:16:17.013Z,11.19
2018-10-03T04:17:16.285Z,11.17
2018-10-03T04:18:16.572Z,11.22
2018-10-03T04:19:16.852Z,11.25
2018-10-03T04:20:17.149Z,11.22
2018-10-03T04:21:17.186Z,11.20
2018-10-03T04:22:16.458Z,11.23
2018-10-03T04:23:16.733Z,11.19
2018-10-03T04:24:17.003Z,11.22
2018-10-03T04:25:16.281Z,11.20
2018-10-03T04:26:16.578Z,11.12
2018-10-03T04:27:16.860Z,11.03
2018-10-03T04:28:17.141Z,11.03
2018-10-03T04:29:16.415Z,11.02
2018-10-03T04:30:16.701Z,10.96
2018-10-03T04:31:16.741Z,10.99
2018-10-03T04:32:17.012Z,10.98
2018-10-03T04:33:16.282Z,10.91
2018-10-03T04:34:16.553Z,10.92
2018-10-03T04:35:16.824Z,10.92
2018-10-03T04:36:17.099Z,10.96
2018-10-03T04:37:16.383Z,10.96
2018-10-03T04:38:16.648Z,10.94
2018-10-03T04:39:16.918Z,10.92
2018-10-03T04:40:17.205Z,10.89
2018-10-03T04:41:16.256Z,10.89
2018-10-03T04:42:16.578Z,10.92
2018-10-03T04:43:16.976Z,10.91
2018-10-03T04:44:16.243Z,10.92
2018-10-03T04:45:16.518Z,10.96
2018-10-03T04:46:16.789Z,10.95
2018-10-03T04:47:17.058Z,10.95
2018-10-03T04:48:16.330Z,10.94
2018-10-03T04:49:16.604Z,10.98
2018-10-03T04:50:16.882Z,10.94
2018-10-03T04:51:16.930Z,10.89
2018-10-03T04:52:17.201Z,10.92
2018-10-03T04:53:16.473Z,10.92
2018-10-03T04:54:16.750Z,10.95
2018-10-03T04:55:17.059Z,10.94
2018-10-03T04:56:16.338Z,10.91
2018-10-03T04:57:16.602Z,10.94
2018-10-03T04:58:16.872Z,10.95
2018-10-03T04:59:17.144Z,10.95
2018-10-03T05:00:16.437Z,10.88
2018-10-03T05:01:16.467Z,10.95
2018-10-03T05:02:16.754Z,11.03
2018-10-03T05:03:17.024Z,10.99
2018-10-03T05:04:16.298Z,10.98
2018-10-03T05:05:16.585Z,11.05
2018-10-03T05:06:16.847Z,11.10
2018-10-03T05:07:17.123Z,11.03
2018-10-03T05:08:16.386Z,11.00
2018-10-03T05:09:16.657Z,10.96
2018-10-03T05:10:16.932Z,11.00
2018-10-03T05:11:17.084Z,11.00
2018-10-03T05:12:16.618Z,11.09
2018-10-03T05:13:16.911Z,11.09
2018-10-03T05:14:17.186Z,11.09
2018-10-03T05:15:16.460Z,11.07
2018-10-03T05:16:16.733Z,11.07
2018-10-03T05:17:17.018Z,11.07
2018-10-03T05:18:16.282Z,11.10
2018-10-03T05:19:16.551Z,11.09
2018-10-03T05:20:16.848Z,11.12
2018-10-03T05:21:16.874Z,11.12
2018-10-03T05:22:17.208Z,11.10
2018-10-03T05:23:16.482Z,11.10
2018-10-03T05:24:16.749Z,11.12
2018-10-03T05:25:17.026Z,11.17
2018-10-03T05:26:16.306Z,11.15
2018-10-03T05:27:16.575Z,11.12
2018-10-03T05:28:16.847Z,11.16
2018-10-03T05:29:17.121Z,11.20
2018-10-03T05:30:16.400Z,11.19
2018-10-03T05:31:16.433Z,11.19
2018-10-03T05:32:16.699Z,11.15
2018-10-03T05:33:17.016Z,11.15
2018-10-03T05:34:16.406Z,11.12
2018-10-03T05:35:16.698Z,11.15
2018-10-03T05:36:16.989Z,11.15
2018-10-03T05:37:16.273Z,11.17
2018-10-03T05:38:16.548Z,11.12
2018-10-03T05:39:16.829Z,11.15
2018-10-03T05:40:17.122Z,11.16
2018-10-03T05:41:17.172Z,11.10
2018-10-03T05:42:16.452Z,11.15
2018-10-03T05:43:16.767Z,11.10
2018-10-03T05:44:17.036Z,11.16
2018-10-03T05:45:16.305Z,11.15
2018-10-03T05:46:16.576Z,11.16
2018-10-03T05:47:16.854Z,11.19
2018-10-03T05:48:17.166Z,11.17
2018-10-03T05:49:16.486Z,11.23
2018-10-03T05:50:16.787Z,11.17
2018-10-03T05:51:16.810Z,11.19
2018-10-03T05:52:17.094Z,11.17
2018-10-03T05:53:16.373Z,11.26
2018-10-03T05:54:16.640Z,11.25
2018-10-03T05:55:16.915Z,11.27
2018-10-03T05:56:17.206Z,11.31
2018-10-03T05:57:16.503Z,11.29
2018-10-03T05:58:16.771Z,11.25
2018-10-03T05:59:17.053Z,11.26
2018-10-03T06:00:16.356Z,11.27
2018-10-03T06:01:16.385Z,11.31
2018-10-03T06:02:16.653Z,11.34
2018-10-03T06:03:16.916Z,11.39
2018-10-03T06:04:17.192Z,11.39
2018-10-03T06:05:16.471Z,11.39
2018-10-03T06:06:16.740Z,11.36
2018-10-03T06:07:17.010Z,11.40
2018-10-03T06:08:16.284Z,11.42
2018-10-03T06:09:16.557Z,11.42
2018-10-03T06:10:16.830Z,11.37
2018-10-03T06:11:16.876Z,11.39
2018-10-03T06:12:17.187Z,11.43
2018-10-03T06:13:16.737Z,11.46
2018-10-03T06:14:17.006Z,11.46
2018-10-03T06:15:16.284Z,11.46
2018-10-03T06:16:16.570Z,11.49
2018-10-03T06:17:16.847Z,11.46
2018-10-03T06:18:17.118Z,11.50
2018-10-03T06:19:16.381Z,11.50
2018-10-03T06:20:16.654Z,11.51
2018-10-03T06:21:16.709Z,11.51
2018-10-03T06:22:16.976Z,11.51
2018-10-03T06:23:16.244Z,11.54
2018-10-03T06:24:16.516Z,11.51
2018-10-03T06:25:16.784Z,11.51
2018-10-03T06:26:17.061Z,11.57
2018-10-03T06:27:16.329Z,11.55
2018-10-03T06:28:16.692Z,11.58
2018-10-03T06:29:17.196Z,11.58
2018-10-03T06:30:16.484Z,11.60
2018-10-03T06:31:16.535Z,11.61
2018-10-03T06:32:16.949Z,11.57
2018-10-03T06:33:16.243Z,11.65
2018-10-03T06:34:16.580Z,11.61
2018-10-03T06:35:16.854Z,11.55
2018-10-03T06:36:17.404Z,11.55
2018-10-03T06:37:16.938Z,11.58
2018-10-03T06:38:16.203Z,11.60
2018-10-03T06:39:16.517Z,11.57
2018-10-03T06:40:16.889Z,11.54
2018-10-03T06:41:17.123Z,11.55
2018-10-03T06:42:16.400Z,11.58
2018-10-03T06:43:16.664Z,11.63
2018-10-03T06:44:16.955Z,11.51
2018-10-03T06:45:16.345Z,11.51
2018-10-03T06:46:16.610Z,11.46
2018-10-03T06:47:16.877Z,11.47
2018-10-03T06:48:17.145Z,11.46
2018-10-03T06:49:16.414Z,11.44
2018-10-03T06:50:16.691Z,11.42
2018-10-03T06:51:16.742Z,11.40
2018-10-03T06:52:17.012Z,11.37
2018-10-03T06:53:16.281Z,11.36
2018-10-03T06:54:16.562Z,11.34
2018-10-03T06:55:16.840Z,11.31
2018-10-03T06:56:17.109Z,11.34
2018-10-03T06:57:16.375Z,11.34
2018-10-03T06:58:16.635Z,11.30
2018-10-03T06:59:16.903Z,11.34
2018-10-03T07:00:17.186Z,11.30
2018-10-03T07:01:16.234Z,11.20
2018-10-03T07:02:16.501Z,11.22
2018-10-03T07:03:16.776Z,11.19
2018-10-03T07:04:17.039Z,11.09
2018-10-03T07:05:16.316Z,11.12
2018-10-03T07:06:16.604Z,11.12
2018-10-03T07:07:16.883Z,11.05
2018-10-03T07:08:17.157Z,11.06
2018-10-03T07:09:16.422Z,11.03
2018-10-03T07:10:16.712Z,11.03
2018-10-03T07:11:16.776Z,10.98
2018-10-03T07:12:17.048Z,10.96
2018-10-03T07:13:16.335Z,10.92
2018-10-03T07:14:16.604Z,10.92
2018-10-03T07:15:16.895Z,10.89
2018-10-03T07:16:17.331Z,10.87
2018-10-03T07:17:16.616Z,10.87
2018-10-03T07:18:16.893Z,10.87
2018-10-03T07:19:17.160Z,10.84
2018-10-03T07:20:16.494Z,10.81
2018-10-03T07:21:16.500Z,10.82
2018-10-03T07:22:16.772Z,10.82
2018-10-03T07:23:17.040Z,10.87
2018-10-03T07:24:16.309Z,10.84
2018-10-03T07:25:16.603Z,10.89
2018-10-03T07:26:16.945Z,10.88
2018-10-03T07:27:16.445Z,10.85
2018-10-03T07:28:16.717Z,10.89
2018-10-03T07:29:16.988Z,10.88
2018-10-03T07:30:16.284Z,10.95
2018-10-03T07:31:16.325Z,10.96
2018-10-03T07:32:16.593Z,11.00
2018-10-03T07:33:16.862Z,10.98
2018-10-03T07:34:17.133Z,10.99
2018-10-03T07:35:16.406Z,11.03
2018-10-03T07:36:16.682Z,11.07
2018-10-03T07:37:16.954Z,11.05
2018-10-03T07:38:16.222Z,11.10
2018-10-03T07:39:16.497Z,11.12
2018-10-03T07:40:16.777Z,11.16
2018-10-03T07:41:16.820Z,11.23
2018-10-03T07:42:17.094Z,11.27
2018-10-03T07:43:16.361Z,11.29
2018-10-03T07:44:16.626Z,11.26
2018-10-03T07:45:16.899Z,11.29
2018-10-03T07:46:17.176Z,11.23
2018-10-03T07:47:16.464Z,11.31
2018-10-03T07:48:16.735Z,11.33
2018-10-03T07:49:17.001Z,11.36
2018-10-03T07:50:16.278Z,11.44
2018-10-03T07:51:16.342Z,11.46
2018-10-03T07:52:16.614Z,11.47
2018-10-03T07:53:16.895Z,11.49
2018-10-03T07:54:17.175Z,11.51
2018-10-03T07:55:16.439Z,11.53
2018-10-03T07:56:16.804Z,11.57
2018-10-03T07:57:17.217Z,11.61
2018-10-03T07:58:16.521Z,11.57
2018-10-03T07:59:16.800Z,11.64
2018-10-03T08:00:17.100Z,11.64
2018-10-03T08:01:17.138Z,11.67
2018-10-03T08:02:16.405Z,11.70
2018-10-03T08:03:16.684Z,11.70
2018-10-03T08:04:16.964Z,11.70
2018-10-03T08:05:16.240Z,11.74
2018-10-03T08:06:16.529Z,11.74
2018-10-03T08:07:16.809Z,11.81
2018-10-03T08:08:17.065Z,11.81
2018-10-03T08:09:16.356Z,11.84
2018-10-03T08:10:16.646Z,11.75
2018-10-03T08:11:16.678Z,11.89
2018-10-03T08:12:16.956Z,11.91
2018-10-03T08:13:16.224Z,12.01
2018-10-03T08:14:16.492Z,12.09
2018-10-03T08:15:16.787Z,12.19
2018-10-03T08:16:17.063Z,12.13
2018-10-03T08:17:16.383Z,12.08
2018-10-03T08:18:16.700Z,12.19
2018-10-03T08:19:16.976Z,12.29
2018-10-03T08:20:16.257Z,12.30
2018-10-03T08:21:16.292Z,12.22
2018-10-03T08:22:16.577Z,12.25
2018-10-03T08:23:16.851Z,12.35
2018-10-03T08:24:17.121Z,12.40
2018-10-03T08:25:16.395Z,12.39
2018-10-03T08:26:16.657Z,12.44
2018-10-03T08:27:16.923Z,12.46
2018-10-03T08:28:17.194Z,12.44
2018-10-03T08:29:16.469Z,12.51
2018-10-03T08:30:16.756Z,12.47
2018-10-03T08:31:16.791Z,12.50
2018-10-03T08:32:17.196Z,12.46
2018-10-03T08:33:16.651Z,12.54
2018-10-03T08:34:17.138Z,12.57
2018-10-03T08:35:16.419Z,12.58
2018-10-03T08:36:16.707Z,12.64
2018-10-03T08:37:16.974Z,12.61
2018-10-03T08:38:16.239Z,12.74
2018-10-03T08:39:16.513Z,12.84
2018-10-03T08:40:16.811Z,12.77
2018-10-03T08:41:16.834Z,12.82
2018-10-03T08:42:17.672Z,12.89
2018-10-03T08:43:16.947Z,12.95
2018-10-03T08:44:16.217Z,13.02
2018-10-03T08:45:16.496Z,12.99
2018-10-03T08:46:16.768Z,12.94
2018-10-03T08:47:17.058Z,12.99
2018-10-03T08:48:16.347Z,13.01
2018-10-03T08:49:16.609Z,13.02
2018-10-03T08:50:16.892Z,12.91
2018-10-03T08:51:16.936Z,12.91
2018-10-03T08:52:17.230Z,12.88
2018-10-03T08:53:16.511Z,12.92
2018-10-03T08:54:16.782Z,13.01
2018-10-03T08:55:17.053Z,13.06
2018-10-03T08:56:16.384Z,12.99
2018-10-03T08:57:16.657Z,13.04
2018-10-03T08:58:17.079Z,13.06
2018-10-03T08:59:16.520Z,13.01
2018-10-03T09:00:16.813Z,12.99
2018-10-03T09:01:16.841Z,13.08
2018-10-03T09:02:17.114Z,13.02
2018-10-03T09:03:16.382Z,12.95
2018-10-03T09:04:16.660Z,12.96
2018-10-03T09:05:16.941Z,12.94
2018-10-03T09:06:16.204Z,12.91
2018-10-03T09:07:16.464Z,12.85
2018-10-03T09:08:16.767Z,12.79
2018-10-03T09:09:17.046Z,12.77
2018-10-03T09:10:16.322Z,12.72
2018-10-03T09:11:16.362Z,12.75
2018-10-03T09:12:16.626Z,12.79
2018-10-03T09:13:16.906Z,12.82
2018-10-03T09:14:17.189Z,12.78
2018-10-03T09:15:16.471Z,12.79
2018-10-03T09:16:16.753Z,12.67
2018-10-03T09:17:17.018Z,12.71
2018-10-03T09:18:16.286Z,12.68
2018-10-03T09:19:16.555Z,12.67
2018-10-03T09:20:16.838Z,12.68
2018-10-03T09:21:16.905Z,12.67
2018-10-03T09:22:16.294Z,12.66
2018-10-03T09:23:16.559Z,12.66
2018-10-03T09:24:16.839Z,12.63
2018-10-03T09:25:17.121Z,12.64
2018-10-03T09:26:16.394Z,12.68
2018-10-03T09:27:16.671Z,12.64
2018-10-03T09:28:16.973Z,12.70
2018-10-03T09:29:16.447Z,12.77
2018-10-03T09:30:16.732Z,12.75
2018-10-03T09:31:16.759Z,12.79
2018-10-03T09:32:17.030Z,12.77
2018-10-03T09:33:16.306Z,12.78
2018-10-03T09:34:16.577Z,12.79
2018-10-03T09:35:16.848Z,12.81
2018-10-03T09:36:17.121Z,12.77
2018-10-03T09:37:16.402Z,12.81
2018-10-03T09:38:16.670Z,12.84
2018-10-03T09:39:16.934Z,12.81
2018-10-03T09:40:17.211Z,12.79
2018-10-03T09:41:16.274Z,12.79
2018-10-03T09:42:16.563Z,12.77
2018-10-03T09:43:16.823Z,12.79
2018-10-03T09:44:17.112Z,12.85
2018-10-03T09:45:16.383Z,12.77
2018-10-03T09:46:16.650Z,12.75
2018-10-03T09:47:16.921Z,12.71
2018-10-03T09:48:17.325Z,12.71
2018-10-03T09:49:16.604Z,12.70
2018-10-03T09:50:16.918Z,12.74
2018-10-03T09:51:16.913Z,12.72
2018-10-03T09:52:17.174Z,12.75
2018-10-03T09:53:16.455Z,12.72
2018-10-03T09:54:16.736Z,12.75
2018-10-03T09:55:17.006Z,12.78
2018-10-03T09:56:16.281Z,12.82
2018-10-03T09:57:16.565Z,12.84
2018-10-03T09:58:16.831Z,12.85
2018-10-03T09:59:17.106Z,12.84
2018-10-03T10:00:16.387Z,12.88
2018-10-03T10:01:16.440Z,12.88
2018-10-03T10:02:16.706Z,12.85
2018-10-03T10:03:16.970Z,12.88
2018-10-03T10:04:16.243Z,12.87
2018-10-03T10:05:16.524Z,12.88
2018-10-03T10:06:16.806Z,12.89
2018-10-03T10:07:17.081Z,12.96
2018-10-03T10:08:16.353Z,12.99
2018-10-03T10:09:16.629Z,12.95
2018-10-03T10:10:17.027Z,12.98
2018-10-03T10:11:17.064Z,13.08
2018-10-03T10:12:16.621Z,13.06
2018-10-03T10:13:16.899Z,13.08
2018-10-03T10:14:17.184Z,13.09
2018-10-03T10:15:16.448Z,13.19
2018-10-03T10:16:16.722Z,13.23
2018-10-03T10:17:16.999Z,13.21
2018-10-03T10:18:16.261Z,13.18
2018-10-03T10:19:16.540Z,13.15
2018-10-03T10:20:16.819Z,13.19
2018-10-03T10:21:16.864Z,13.27
2018-10-03T10:22:17.144Z,13.23
2018-10-03T10:23:16.430Z,13.36
2018-10-03T10:24:16.700Z,13.36
2018-10-03T10:25:16.973Z,13.34
2018-10-03T10:26:16.240Z,13.39
2018-10-03T10:27:16.510Z,13.43
2018-10-03T10:28:16.777Z,13.51
2018-10-03T10:29:17.050Z,13.47
2018-10-03T10:30:16.335Z,13.53
2018-10-03T10:31:16.393Z,13.39
2018-10-03T10:32:16.790Z,13.37
2018-10-03T10:33:16.236Z,13.43
2018-10-03T10:34:16.513Z,13.53
2018-10-03T10:35:16.793Z,13.42
2018-10-03T10:36:17.067Z,13.39
2018-10-03T10:37:16.337Z,13.47
2018-10-03T10:38:16.611Z,13.40
2018-10-03T10:39:16.888Z,13.44
2018-10-03T10:40:17.171Z,13.44
2018-10-03T10:41:17.332Z,13.51
2018-10-03T10:42:16.853Z,13.57
2018-10-03T10:43:17.232Z,13.71
2018-10-03T10:44:16.577Z,13.71
2018-10-03T10:45:16.845Z,13.63
2018-10-03T10:46:17.108Z,13.84
2018-10-03T10:47:16.373Z,13.70
2018-10-03T10:48:16.633Z,13.76
2018-10-03T10:49:16.284Z,13.82
2018-10-03T10:50:16.672Z,13.73
2018-10-03T10:51:16.641Z,13.65
2018-10-03T10:52:16.919Z,13.51
2018-10-03T10:53:17.191Z,13.53
2018-10-03T10:54:16.459Z,13.55
2018-10-03T10:55:16.738Z,13.43
2018-10-03T10:56:17.012Z,13.47
2018-10-03T10:57:16.291Z,13.49
2018-10-03T10:58:16.573Z,13.51
2018-10-03T10:59:16.844Z,13.61
2018-10-03T11:00:17.136Z,13.57
2018-10-03T11:01:17.172Z,13.63
2018-10-03T11:02:16.444Z,13.57
2018-10-03T11:03:16.714Z,13.65
2018-10-03T11:04:16.985Z,13.63
2018-10-03T11:05:16.261Z,13.64
2018-10-03T11:06:16.636Z,13.67
2018-10-03T11:07:17.041Z,13.77
2018-10-03T11:08:16.321Z,13.77
2018-10-03T11:09:16.592Z,13.91
2018-10-03T11:10:16.865Z,14.01
2018-10-03T11:11:16.919Z,14.12
2018-10-03T11:12:17.193Z,14.15
2018-10-03T11:13:16.481Z,14.11
2018-10-03T11:14:16.748Z,13.97
2018-10-03T11:15:17.028Z,14.04
2018-10-03T11:16:16.301Z,14.12
2018-10-03T11:17:16.591Z,14.25
2018-10-03T11:18:16.857Z,14.36
2018-10-03T11:19:17.129Z,14.47
2018-10-03T11:20:16.405Z,14.50
2018-10-03T11:21:16.471Z,14.43
2018-10-03T11:22:16.758Z,14.63
2018-10-03T11:23:17.029Z,14.60
2018-10-03T11:24:16.395Z,14.64
2018-10-03T11:25:17.023Z,14.73
2018-10-03T11:26:16.288Z,14.64
2018-10-03T11:27:16.556Z,14.60
2018-10-03T11:28:16.824Z,14.56
2018-10-03T11:29:17.107Z,14.50
2018-10-03T11:30:16.383Z,14.53
2018-10-03T11:31:16.436Z,14.55
2018-10-03T11:32:16.853Z,14.83
2018-10-03T11:33:16.434Z,14.83
2018-10-03T11:34:16.698Z,14.84
2018-10-03T11:35:16.969Z,14.84
2018-10-03T11:36:16.237Z,14.77
2018-10-03T11:37:16.509Z,14.98
2018-10-03T11:38:16.854Z,14.92
2018-10-03T11:39:16.243Z,15.11
2018-10-03T11:40:16.526Z,15.23
2018-10-03T11:41:16.743Z,15.46
2018-10-03T11:42:17.016Z,15.63
2018-10-03T11:43:16.287Z,15.35
2018-10-03T11:44:16.558Z,15.56
2018-10-03T11:45:16.827Z,15.60
2018-10-03T11:46:17.101Z,15.67
2018-10-03T11:47:16.374Z,15.74
2018-10-03T11:48:16.643Z,15.71
2018-10-03T11:49:16.911Z,15.43
2018-10-03T11:50:17.186Z,15.53
2018-10-03T11:51:16.233Z,15.28
2018-10-03T11:52:16.511Z,14.88
2018-10-03T11:53:16.779Z,15.04
2018-10-03T11:54:17.046Z,15.06
2018-10-03T11:55:16.353Z,15.06
2018-10-03T11:56:16.621Z,15.01
2018-10-03T11:57:16.893Z,15.01
2018-10-03T11:58:17.158Z,15.12
2018-10-03T11:59:16.423Z,15.09
2018-10-03T12:00:16.736Z,14.74
2018-10-03T12:01:16.778Z,14.85
2018-10-03T12:02:17.046Z,14.94
2018-10-03T12:03:16.450Z,14.94
2018-10-03T12:04:16.986Z,14.98
2018-10-03T12:05:16.268Z,14.97
2018-10-03T12:06:16.533Z,15.02
2018-10-03T12:07:16.803Z,14.99
2018-10-03T12:08:17.070Z,14.80
2018-10-03T12:09:16.413Z,14.81
2018-10-03T12:10:16.822Z,14.85
2018-10-03T12:11:16.863Z,14.87
2018-10-03T12:12:17.136Z,14.84
2018-10-03T12:13:16.413Z,14.94
2018-10-03T12:14:16.675Z,14.85
2018-10-03T12:15:16.953Z,14.98
2018-10-03T12:16:16.226Z,15.16
2018-10-03T12:17:16.496Z,15.38
2018-10-03T12:18:16.766Z,15.42
2018-10-03T12:19:17.039Z,15.43
2018-10-03T12:20:16.319Z,15.33
2018-10-03T12:21:16.357Z,15.41
2018-10-03T12:22:16.639Z,15.39
2018-10-03T12:23:16.903Z,15.29
2018-10-03T12:24:17.169Z,15.29
2018-10-03T12:25:16.497Z,15.25
2018-10-03T12:26:17.112Z,15.38
2018-10-03T12:27:16.390Z,15.32
2018-10-03T12:28:16.668Z,15.36
2018-10-03T12:29:16.935Z,15.39
2018-10-03T12:30:17.531Z,15.43
2018-10-03T12:31:16.270Z,15.39
2018-10-03T12:32:16.552Z,15.41
2018-10-03T12:33:16.869Z,15.35
2018-10-03T12:34:16.292Z,15.26
2018-10-03T12:35:16.565Z,15.32
2018-10-03T12:36:16.256Z,15.25
2018-10-03T12:37:16.536Z,15.36
2018-10-03T12:38:16.823Z,15.42
2018-10-03T12:39:17.085Z,15.43
2018-10-03T12:40:16.378Z,15.29
2018-10-03T12:41:16.407Z,15.19
2018-10-03T12:42:16.667Z,15.29
2018-10-03T12:43:16.935Z,15.25
2018-10-03T12:44:17.202Z,15.23
2018-10-03T12:45:16.477Z,15.15
2018-10-03T12:46:16.752Z,15.21
2018-10-03T12:47:17.024Z,15.16
2018-10-03T12:48:16.287Z,15.39
2018-10-03T12:49:16.560Z,15.39
2018-10-03T12:50:16.837Z,15.43
2018-10-03T12:51:16.875Z,15.35
2018-10-03T12:52:17.139Z,15.23